Terminal Aerodrome Forecast
Issued by NWS Grand Forks, ND

Home | Current Version | Previous Version | Text Only | Print | Product List | Glossary Off
Versions: 1 2 3 4 5 6 7 8 9 10 11 12 13 14 15 16 17 18

000
FTUS43 KFGF 091120
TAFGFK
TAF
KGFK 091120Z 0912/1012 33007KT P6SM SCT025
      TEMPO 0912/0915 BKN025
     FM091500 25005KT P6SM BKN080
     FM100300 30010KT P6SM BKN080=

USA.gov is the U.S. government's official web portal to all federal, state and local government web resources and services.